sensor_id;sensor_type;location;lat;lon;timestamp;P1;durP1;ratioP1;P2;durP2;ratioP2
3217;SDS011;1621;49.702;8.618;2023-08-06T00:00:21;6.07;;;3.40;;
3217;SDS011;1621;49.702;8.618;2023-08-06T00:02:49;6.83;;;3.30;;
3217;SDS011;1621;49.702;8.618;2023-08-06T00:05:15;6.03;;;3.70;;
3217;SDS011;1621;49.702;8.618;2023-08-06T00:07:43;4.60;;;3.03;;
3217;SDS011;1621;49.702;8.618;2023-08-06T00:10:09;5.63;;;2.80;;
3217;SDS011;1621;49.702;8.618;2023-08-06T00:12:37;6.20;;;2.90;;
3217;SDS011;1621;49.702;8.618;2023-08-06T00:15:04;5.97;;;3.00;;
3217;SDS011;1621;49.702;8.618;2023-08-06T00:17:30;6.60;;;3.67;;
3217;SDS011;1621;49.702;8.618;2023-08-06T00:19:56;5.37;;;3.03;;
3217;SDS011;1621;49.702;8.618;2023-08-06T00:22:22;5.53;;;2.80;;
3217;SDS011;1621;49.702;8.618;2023-08-06T00:24:49;5.23;;;3.67;;
3217;SDS011;1621;49.702;8.618;2023-08-06T00:27:15;5.50;;;2.93;;
3217;SDS011;1621;49.702;8.618;2023-08-06T00:29:43;6.07;;;3.40;;
3217;SDS011;1621;49.702;8.618;2023-08-06T00:32:09;5.40;;;3.17;;
3217;SDS011;1621;49.702;8.618;2023-08-06T00:34:35;4.93;;;2.80;;
3217;SDS011;1621;49.702;8.618;2023-08-06T00:37:02;4.90;;;3.00;;
3217;SDS011;1621;49.702;8.618;2023-08-06T00:39:28;5.27;;;3.50;;
3217;SDS011;1621;49.702;8.618;2023-08-06T00:41:54;4.90;;;2.87;;
3217;SDS011;1621;49.702;8.618;2023-08-06T00:44:20;4.53;;;2.87;;
3217;SDS011;1621;49.702;8.618;2023-08-06T00:46:48;7.70;;;3.43;;
3217;SDS011;1621;49.702;8.618;2023-08-06T00:49:14;7.43;;;3.50;;
3217;SDS011;1621;49.702;8.618;2023-08-06T00:51:41;5.10;;;2.90;;
3217;SDS011;1621;49.702;8.618;2023-08-06T00:54:07;5.93;;;3.57;;
3217;SDS011;1621;49.702;8.618;2023-08-06T00:56:34;5.60;;;3.13;;
3217;SDS011;1621;49.702;8.618;2023-08-06T00:59:01;4.83;;;2.90;;
3217;SDS011;1621;49.702;8.618;2023-08-06T01:01:28;5.43;;;3.07;;
3217;SDS011;1621;49.702;8.618;2023-08-06T01:03:55;5.87;;;3.30;;
3217;SDS011;1621;49.702;8.618;2023-08-06T01:06:23;6.87;;;3.77;;
3217;SDS011;1621;49.702;8.618;2023-08-06T01:08:56;5.10;;;2.90;;
3217;SDS011;1621;49.702;8.618;2023-08-06T01:11:26;4.73;;;2.90;;
3217;SDS011;1621;49.702;8.618;2023-08-06T01:13:54;6.10;;;3.37;;
3217;SDS011;1621;49.702;8.618;2023-08-06T01:16:24;6.10;;;3.60;;
3217;SDS011;1621;49.702;8.618;2023-08-06T01:18:51;6.63;;;2.90;;
3217;SDS011;1621;49.702;8.618;2023-08-06T01:21:18;6.07;;;3.20;;
3217;SDS011;1621;49.702;8.618;2023-08-06T01:23:45;6.87;;;3.20;;
3217;SDS011;1621;49.702;8.618;2023-08-06T01:26:13;4.83;;;2.97;;
3217;SDS011;1621;49.702;8.618;2023-08-06T01:28:44;7.23;;;3.37;;
3217;SDS011;1621;49.702;8.618;2023-08-06T01:31:18;5.00;;;2.87;;
3217;SDS011;1621;49.702;8.618;2023-08-06T01:33:45;6.23;;;2.80;;
3217;SDS011;1621;49.702;8.618;2023-08-06T01:36:13;4.90;;;2.70;;
3217;SDS011;1621;49.702;8.618;2023-08-06T01:38:41;5.90;;;2.87;;
3217;SDS011;1621;49.702;8.618;2023-08-06T01:41:08;4.90;;;3.07;;
3217;SDS011;1621;49.702;8.618;2023-08-06T01:43:34;4.30;;;2.87;;
3217;SDS011;1621;49.702;8.618;2023-08-06T01:46:00;5.00;;;2.80;;
3217;SDS011;1621;49.702;8.618;2023-08-06T01:48:26;7.23;;;2.67;;
3217;SDS011;1621;49.702;8.618;2023-08-06T01:50:53;8.33;;;2.90;;
3217;SDS011;1621;49.702;8.618;2023-08-06T01:53:19;4.63;;;2.90;;
3217;SDS011;1621;49.702;8.618;2023-08-06T01:55:48;5.90;;;2.80;;
3217;SDS011;1621;49.702;8.618;2023-08-06T01:58:15;5.30;;;3.13;;
3217;SDS011;1621;49.702;8.618;2023-08-06T02:00:41;5.47;;;2.73;;
3217;SDS011;1621;49.702;8.618;2023-08-06T02:03:07;4.67;;;2.70;;
3217;SDS011;1621;49.702;8.618;2023-08-06T02:05:34;5.20;;;2.50;;
3217;SDS011;1621;49.702;8.618;2023-08-06T02:08:00;5.30;;;2.40;;
3217;SDS011;1621;49.702;8.618;2023-08-06T02:10:26;5.00;;;2.77;;
3217;SDS011;1621;49.702;8.618;2023-08-06T02:12:54;4.83;;;2.93;;
3217;SDS011;1621;49.702;8.618;2023-08-06T02:15:20;5.87;;;2.60;;
3217;SDS011;1621;49.702;8.618;2023-08-06T02:17:46;6.60;;;3.03;;
3217;SDS011;1621;49.702;8.618;2023-08-06T02:20:13;5.30;;;2.90;;
3217;SDS011;1621;49.702;8.618;2023-08-06T02:22:39;5.20;;;3.20;;
3217;SDS011;1621;49.702;8.618;2023-08-06T02:25:05;4.00;;;2.43;;
3217;SDS011;1621;49.702;8.618;2023-08-06T02:27:32;6.43;;;3.00;;
3217;SDS011;1621;49.702;8.618;2023-08-06T02:29:59;3.87;;;2.30;;
3217;SDS011;1621;49.702;8.618;2023-08-06T02:32:26;4.97;;;2.70;;
3217;SDS011;1621;49.702;8.618;2023-08-06T02:34:54;5.97;;;2.67;;
3217;SDS011;1621;49.702;8.618;2023-08-06T02:37:20;4.30;;;2.53;;
3217;SDS011;1621;49.702;8.618;2023-08-06T02:39:46;5.87;;;2.70;;
3217;SDS011;1621;49.702;8.618;2023-08-06T02:42:13;5.10;;;3.13;;
3217;SDS011;1621;49.702;8.618;2023-08-06T02:44:39;4.50;;;2.50;;
3217;SDS011;1621;49.702;8.618;2023-08-06T02:47:07;6.07;;;2.20;;
3217;SDS011;1621;49.702;8.618;2023-08-06T02:49:33;6.07;;;2.60;;
3217;SDS011;1621;49.702;8.618;2023-08-06T02:51:59;6.87;;;2.93;;
3217;SDS011;1621;49.702;8.618;2023-08-06T02:54:25;5.00;;;2.67;;
3217;SDS011;1621;49.702;8.618;2023-08-06T02:56:52;6.20;;;2.90;;
3217;SDS011;1621;49.702;8.618;2023-08-06T02:59:18;8.33;;;2.80;;
3217;SDS011;1621;49.702;8.618;2023-08-06T03:01:44;8.63;;;2.60;;
3217;SDS011;1621;49.702;8.618;2023-08-06T03:04:12;8.73;;;3.10;;
3217;SDS011;1621;49.702;8.618;2023-08-06T03:06:38;4.80;;;2.60;;
3217;SDS011;1621;49.702;8.618;2023-08-06T03:09:04;6.43;;;2.90;;
3217;SDS011;1621;49.702;8.618;2023-08-06T03:11:31;4.60;;;2.67;;
3217;SDS011;1621;49.702;8.618;2023-08-06T03:13:57;9.40;;;3.13;;
3217;SDS011;1621;49.702;8.618;2023-08-06T03:16:23;5.87;;;3.13;;
3217;SDS011;1621;49.702;8.618;2023-08-06T03:18:49;4.20;;;2.60;;
3217;SDS011;1621;49.702;8.618;2023-08-06T03:21:17;4.00;;;2.50;;
3217;SDS011;1621;49.702;8.618;2023-08-06T03:23:44;5.07;;;2.63;;
3217;SDS011;1621;49.702;8.618;2023-08-06T03:26:12;4.90;;;2.90;;
3217;SDS011;1621;49.702;8.618;2023-08-06T03:28:38;5.83;;;3.00;;
3217;SDS011;1621;49.702;8.618;2023-08-06T03:31:05;5.20;;;3.00;;
3217;SDS011;1621;49.702;8.618;2023-08-06T03:33:31;5.90;;;3.00;;
3217;SDS011;1621;49.702;8.618;2023-08-06T03:35:57;4.60;;;2.60;;
3217;SDS011;1621;49.702;8.618;2023-08-06T03:38:25;4.93;;;2.70;;
3217;SDS011;1621;49.702;8.618;2023-08-06T03:40:52;4.37;;;2.63;;
3217;SDS011;1621;49.702;8.618;2023-08-06T03:43:18;6.10;;;3.07;;
3217;SDS011;1621;49.702;8.618;2023-08-06T03:45:44;4.13;;;2.60;;
3217;SDS011;1621;49.702;8.618;2023-08-06T03:48:10;5.67;;;3.00;;
3217;SDS011;1621;49.702;8.618;2023-08-06T03:50:36;4.37;;;2.70;;
3217;SDS011;1621;49.702;8.618;2023-08-06T03:53:03;4.87;;;2.77;;
3217;SDS011;1621;49.702;8.618;2023-08-06T03:55:30;7.40;;;2.83;;
3217;SDS011;1621;49.702;8.618;2023-08-06T03:57:57;6.90;;;3.13;;
3217;SDS011;1621;49.702;8.618;2023-08-06T04:00:23;4.43;;;2.70;;
3217;SDS011;1621;49.702;8.618;2023-08-06T04:02:49;12.93;;;2.80;;
3217;SDS011;1621;49.702;8.618;2023-08-06T04:05:15;11.00;;;2.30;;
3217;SDS011;1621;49.702;8.618;2023-08-06T04:07:42;4.60;;;2.57;;
3217;SDS011;1621;49.702;8.618;2023-08-06T04:10:08;9.70;;;2.50;;
3217;SDS011;1621;49.702;8.618;2023-08-06T04:12:36;6.30;;;2.77;;
3217;SDS011;1621;49.702;8.618;2023-08-06T04:15:04;5.20;;;2.57;;
3217;SDS011;1621;49.702;8.618;2023-08-06T04:17:31;6.13;;;2.80;;
3217;SDS011;1621;49.702;8.618;2023-08-06T04:19:57;5.20;;;2.53;;
3217;SDS011;1621;49.702;8.618;2023-08-06T04:22:24;8.13;;;2.90;;
3217;SDS011;1621;49.702;8.618;2023-08-06T04:24:50;6.27;;;3.10;;
3217;SDS011;1621;49.702;8.618;2023-08-06T04:27:19;6.23;;;3.00;;
3217;SDS011;1621;49.702;8.618;2023-08-06T04:29:47;5.10;;;2.50;;
3217;SDS011;1621;49.702;8.618;2023-08-06T04:32:14;4.90;;;2.43;;
3217;SDS011;1621;49.702;8.618;2023-08-06T04:34:40;8.10;;;2.60;;
3217;SDS011;1621;49.702;8.618;2023-08-06T04:37:07;6.20;;;2.30;;
3217;SDS011;1621;49.702;8.618;2023-08-06T04:39:33;8.00;;;2.57;;
3217;SDS011;1621;49.702;8.618;2023-08-06T04:41:59;5.13;;;2.80;;
3217;SDS011;1621;49.702;8.618;2023-08-06T04:44:25;5.37;;;2.03;;
3217;SDS011;1621;49.702;8.618;2023-08-06T04:46:53;4.57;;;2.30;;
3217;SDS011;1621;49.702;8.618;2023-08-06T04:49:20;4.27;;;2.30;;
3217;SDS011;1621;49.702;8.618;2023-08-06T04:51:46;4.83;;;2.70;;
3217;SDS011;1621;49.702;8.618;2023-08-06T04:54:13;4.50;;;2.33;;
3217;SDS011;1621;49.702;8.618;2023-08-06T04:56:39;6.83;;;2.00;;
3217;SDS011;1621;49.702;8.618;2023-08-06T04:59:05;4.30;;;2.10;;
3217;SDS011;1621;49.702;8.618;2023-08-06T05:01:31;5.73;;;2.53;;
3217;SDS011;1621;49.702;8.618;2023-08-06T05:03:59;4.67;;;2.30;;
3217;SDS011;1621;49.702;8.618;2023-08-06T05:06:25;5.83;;;2.40;;
3217;SDS011;1621;49.702;8.618;2023-08-06T05:08:52;3.77;;;1.73;;
3217;SDS011;1621;49.702;8.618;2023-08-06T05:11:18;5.10;;;2.80;;
3217;SDS011;1621;49.702;8.618;2023-08-06T05:13:44;4.80;;;2.37;;
3217;SDS011;1621;49.702;8.618;2023-08-06T05:16:10;5.07;;;2.13;;
3217;SDS011;1621;49.702;8.618;2023-08-06T05:18:37;5.47;;;2.20;;
3217;SDS011;1621;49.702;8.618;2023-08-06T05:21:05;4.80;;;2.10;;
3217;SDS011;1621;49.702;8.618;2023-08-06T05:23:31;6.57;;;2.70;;
3217;SDS011;1621;49.702;8.618;2023-08-06T05:25:58;7.17;;;2.90;;
3217;SDS011;1621;49.702;8.618;2023-08-06T05:28:24;6.00;;;2.40;;
3217;SDS011;1621;49.702;8.618;2023-08-06T05:30:50;5.27;;;2.63;;
3217;SDS011;1621;49.702;8.618;2023-08-06T05:33:16;4.70;;;2.13;;
3217;SDS011;1621;49.702;8.618;2023-08-06T05:35:43;6.20;;;2.50;;
3217;SDS011;1621;49.702;8.618;2023-08-06T05:38:10;7.00;;;1.80;;
3217;SDS011;1621;49.702;8.618;2023-08-06T05:40:37;7.17;;;2.27;;
3217;SDS011;1621;49.702;8.618;2023-08-06T05:43:03;4.50;;;2.00;;
3217;SDS011;1621;49.702;8.618;2023-08-06T05:45:29;4.13;;;1.77;;
3217;SDS011;1621;49.702;8.618;2023-08-06T05:47:55;3.63;;;1.53;;
3217;SDS011;1621;49.702;8.618;2023-08-06T05:50:23;3.70;;;1.60;;
3217;SDS011;1621;49.702;8.618;2023-08-06T05:52:49;5.43;;;1.87;;
3217;SDS011;1621;49.702;8.618;2023-08-06T05:55:17;3.97;;;1.40;;
3217;SDS011;1621;49.702;8.618;2023-08-06T05:57:43;7.57;;;2.13;;
3217;SDS011;1621;49.702;8.618;2023-08-06T06:00:10;4.70;;;1.73;;
3217;SDS011;1621;49.702;8.618;2023-08-06T06:02:36;4.20;;;1.70;;
3217;SDS011;1621;49.702;8.618;2023-08-06T06:05:02;4.40;;;1.77;;
3217;SDS011;1621;49.702;8.618;2023-08-06T06:07:29;4.20;;;1.47;;
3217;SDS011;1621;49.702;8.618;2023-08-06T06:09:55;3.10;;;1.40;;
3217;SDS011;1621;49.702;8.618;2023-08-06T06:12:23;3.97;;;1.70;;
3217;SDS011;1621;49.702;8.618;2023-08-06T06:14:50;4.23;;;1.50;;
3217;SDS011;1621;49.702;8.618;2023-08-06T06:17:17;5.30;;;1.57;;
3217;SDS011;1621;49.702;8.618;2023-08-06T06:19:43;3.63;;;1.50;;
3217;SDS011;1621;49.702;8.618;2023-08-06T06:22:09;3.80;;;1.37;;
3217;SDS011;1621;49.702;8.618;2023-08-06T06:24:35;4.57;;;1.63;;
3217;SDS011;1621;49.702;8.618;2023-08-06T06:27:02;9.10;;;1.97;;
3217;SDS011;1621;49.702;8.618;2023-08-06T06:29:30;6.47;;;1.97;;
3217;SDS011;1621;49.702;8.618;2023-08-06T06:31:56;3.80;;;1.47;;
3217;SDS011;1621;49.702;8.618;2023-08-06T06:34:22;5.53;;;1.90;;
3217;SDS011;1621;49.702;8.618;2023-08-06T06:36:48;3.70;;;1.80;;
3217;SDS011;1621;49.702;8.618;2023-08-06T06:39:15;4.00;;;1.70;;
3217;SDS011;1621;49.702;8.618;2023-08-06T06:41:41;5.93;;;1.77;;
3217;SDS011;1621;49.702;8.618;2023-08-06T06:44:09;6.13;;;1.70;;
3217;SDS011;1621;49.702;8.618;2023-08-06T06:46:36;5.13;;;1.60;;
3217;SDS011;1621;49.702;8.618;2023-08-06T06:49:03;4.93;;;1.70;;
3217;SDS011;1621;49.702;8.618;2023-08-06T06:51:29;5.80;;;1.77;;
3217;SDS011;1621;49.702;8.618;2023-08-06T06:53:56;5.37;;;1.93;;
3217;SDS011;1621;49.702;8.618;2023-08-06T06:56:23;4.43;;;1.50;;
3217;SDS011;1621;49.702;8.618;2023-08-06T06:58:49;3.90;;;1.43;;
3217;SDS011;1621;49.702;8.618;2023-08-06T07:01:15;4.93;;;1.73;;
3217;SDS011;1621;49.702;8.618;2023-08-06T07:03:43;5.03;;;1.80;;
3217;SDS011;1621;49.702;8.618;2023-08-06T07:06:09;4.53;;;1.40;;
3217;SDS011;1621;49.702;8.618;2023-08-06T07:08:37;9.30;;;1.60;;
3217;SDS011;1621;49.702;8.618;2023-08-06T07:11:03;4.30;;;1.37;;
3217;SDS011;1621;49.702;8.618;2023-08-06T07:13:30;6.50;;;2.27;;
3217;SDS011;1621;49.702;8.618;2023-08-06T07:15:57;3.97;;;1.50;;
3217;SDS011;1621;49.702;8.618;2023-08-06T07:18:23;5.37;;;1.87;;
3217;SDS011;1621;49.702;8.618;2023-08-06T07:20:51;4.50;;;1.50;;
3217;SDS011;1621;49.702;8.618;2023-08-06T07:23:17;4.77;;;1.80;;
3217;SDS011;1621;49.702;8.618;2023-08-06T07:25:44;8.10;;;1.33;;
3217;SDS011;1621;49.702;8.618;2023-08-06T07:28:12;4.77;;;1.73;;
3217;SDS011;1621;49.702;8.618;2023-08-06T07:30:39;5.33;;;1.47;;
3217;SDS011;1621;49.702;8.618;2023-08-06T07:33:05;4.53;;;1.30;;
3217;SDS011;1621;49.702;8.618;2023-08-06T07:35:32;4.27;;;1.40;;
3217;SDS011;1621;49.702;8.618;2023-08-06T07:37:59;4.83;;;1.60;;
3217;SDS011;1621;49.702;8.618;2023-08-06T07:40:26;6.83;;;1.50;;
3217;SDS011;1621;49.702;8.618;2023-08-06T07:42:52;5.60;;;1.30;;
3217;SDS011;1621;49.702;8.618;2023-08-06T07:45:18;3.80;;;1.53;;
3217;SDS011;1621;49.702;8.618;2023-08-06T07:47:45;3.87;;;1.47;;
3217;SDS011;1621;49.702;8.618;2023-08-06T07:50:11;6.50;;;1.70;;
3217;SDS011;1621;49.702;8.618;2023-08-06T07:52:38;4.33;;;1.30;;
3217;SDS011;1621;49.702;8.618;2023-08-06T07:55:06;3.10;;;1.10;;
3217;SDS011;1621;49.702;8.618;2023-08-06T07:57:32;5.17;;;1.50;;
3217;SDS011;1621;49.702;8.618;2023-08-06T07:59:59;3.60;;;1.27;;
3217;SDS011;1621;49.702;8.618;2023-08-06T08:02:25;3.93;;;1.40;;
3217;SDS011;1621;49.702;8.618;2023-08-06T08:04:51;3.83;;;1.17;;
3217;SDS011;1621;49.702;8.618;2023-08-06T08:07:18;4.40;;;1.47;;
3217;SDS011;1621;49.702;8.618;2023-08-06T08:09:44;4.83;;;1.13;;
3217;SDS011;1621;49.702;8.618;2023-08-06T08:12:12;3.87;;;1.20;;
3217;SDS011;1621;49.702;8.618;2023-08-06T08:14:38;5.30;;;1.33;;
3217;SDS011;1621;49.702;8.618;2023-08-06T08:17:05;2.97;;;1.10;;
3217;SDS011;1621;49.702;8.618;2023-08-06T08:19:31;3.37;;;1.20;;
3217;SDS011;1621;49.702;8.618;2023-08-06T08:21:58;7.97;;;1.37;;
3217;SDS011;1621;49.702;8.618;2023-08-06T08:24:24;3.80;;;1.07;;
3217;SDS011;1621;49.702;8.618;2023-08-06T08:26:50;7.97;;;1.10;;
3217;SDS011;1621;49.702;8.618;2023-08-06T08:29:19;3.30;;;1.17;;
3217;SDS011;1621;49.702;8.618;2023-08-06T08:31:45;3.70;;;0.93;;
3217;SDS011;1621;49.702;8.618;2023-08-06T08:34:14;6.20;;;1.20;;
3217;SDS011;1621;49.702;8.618;2023-08-06T08:36:40;2.87;;;1.00;;
3217;SDS011;1621;49.702;8.618;2023-08-06T08:39:06;3.00;;;1.20;;
3217;SDS011;1621;49.702;8.618;2023-08-06T08:41:33;2.50;;;0.90;;
3217;SDS011;1621;49.702;8.618;2023-08-06T08:43:59;4.00;;;1.13;;
3217;SDS011;1621;49.702;8.618;2023-08-06T08:46:27;3.07;;;1.07;;
3217;SDS011;1621;49.702;8.618;2023-08-06T08:48:55;3.57;;;0.90;;
3217;SDS011;1621;49.702;8.618;2023-08-06T08:51:22;4.07;;;1.03;;
3217;SDS011;1621;49.702;8.618;2023-08-06T08:53:48;2.60;;;0.90;;
3217;SDS011;1621;49.702;8.618;2023-08-06T08:56:16;3.40;;;1.10;;
3217;SDS011;1621;49.702;8.618;2023-08-06T08:58:42;2.73;;;1.07;;
3217;SDS011;1621;49.702;8.618;2023-08-06T09:01:08;2.97;;;1.00;;
3217;SDS011;1621;49.702;8.618;2023-08-06T09:03:36;3.20;;;0.90;;
3217;SDS011;1621;49.702;8.618;2023-08-06T09:06:02;3.53;;;1.20;;
3217;SDS011;1621;49.702;8.618;2023-08-06T09:08:30;7.03;;;0.90;;
3217;SDS011;1621;49.702;8.618;2023-08-06T09:10:58;3.20;;;1.03;;
3217;SDS011;1621;49.702;8.618;2023-08-06T09:13:27;3.00;;;1.00;;
3217;SDS011;1621;49.702;8.618;2023-08-06T09:15:53;3.33;;;1.10;;
3217;SDS011;1621;49.702;8.618;2023-08-06T09:18:24;3.87;;;1.20;;
3217;SDS011;1621;49.702;8.618;2023-08-06T09:20:52;3.23;;;1.10;;
3217;SDS011;1621;49.702;8.618;2023-08-06T09:23:18;3.53;;;1.10;;
3217;SDS011;1621;49.702;8.618;2023-08-06T09:25:45;3.23;;;1.10;;
3217;SDS011;1621;49.702;8.618;2023-08-06T09:28:11;3.30;;;1.00;;
3217;SDS011;1621;49.702;8.618;2023-08-06T09:30:38;2.50;;;0.90;;
3217;SDS011;1621;49.702;8.618;2023-08-06T09:33:07;2.50;;;0.90;;
3217;SDS011;1621;49.702;8.618;2023-08-06T09:35:35;2.70;;;1.10;;
3217;SDS011;1621;49.702;8.618;2023-08-06T09:38:06;2.93;;;1.00;;
3217;SDS011;1621;49.702;8.618;2023-08-06T09:40:36;2.67;;;0.90;;
3217;SDS011;1621;49.702;8.618;2023-08-06T09:43:03;2.87;;;0.83;;
3217;SDS011;1621;49.702;8.618;2023-08-06T09:45:30;3.37;;;1.00;;
3217;SDS011;1621;49.702;8.618;2023-08-06T09:47:57;3.27;;;1.00;;
3217;SDS011;1621;49.702;8.618;2023-08-06T09:50:26;2.57;;;0.80;;
3217;SDS011;1621;49.702;8.618;2023-08-06T09:52:54;3.60;;;0.90;;
3217;SDS011;1621;49.702;8.618;2023-08-06T09:55:22;2.67;;;0.70;;
3217;SDS011;1621;49.702;8.618;2023-08-06T09:57:49;3.93;;;0.97;;
3217;SDS011;1621;49.702;8.618;2023-08-06T10:00:16;2.20;;;0.70;;
3217;SDS011;1621;49.702;8.618;2023-08-06T10:02:43;2.20;;;0.70;;
3217;SDS011;1621;49.702;8.618;2023-08-06T10:05:10;2.30;;;0.73;;
3217;SDS011;1621;49.702;8.618;2023-08-06T10:07:36;2.60;;;0.80;;
3217;SDS011;1621;49.702;8.618;2023-08-06T10:10:04;2.20;;;0.60;;
3217;SDS011;1621;49.702;8.618;2023-08-06T10:12:32;2.20;;;0.67;;
3217;SDS011;1621;49.702;8.618;2023-08-06T10:15:01;2.50;;;0.70;;
3217;SDS011;1621;49.702;8.618;2023-08-06T10:17:27;2.30;;;0.60;;
3217;SDS011;1621;49.702;8.618;2023-08-06T10:19:54;2.33;;;0.70;;
3217;SDS011;1621;49.702;8.618;2023-08-06T10:22:21;2.37;;;0.77;;
3217;SDS011;1621;49.702;8.618;2023-08-06T10:24:48;3.67;;;1.77;;
3217;SDS011;1621;49.702;8.618;2023-08-06T10:27:19;3.97;;;1.90;;
3217;SDS011;1621;49.702;8.618;2023-08-06T10:29:47;2.40;;;0.70;;
3217;SDS011;1621;49.702;8.618;2023-08-06T10:32:13;6.97;;;4.73;;
3217;SDS011;1621;49.702;8.618;2023-08-06T10:34:55;2.53;;;0.90;;
3217;SDS011;1621;49.702;8.618;2023-08-06T10:37:22;2.43;;;0.83;;
3217;SDS011;1621;49.702;8.618;2023-08-06T10:39:49;7.57;;;3.47;;
3217;SDS011;1621;49.702;8.618;2023-08-06T10:42:26;8.60;;;5.37;;
3217;SDS011;1621;49.702;8.618;2023-08-06T10:45:13;3.93;;;1.83;;
3217;SDS011;1621;49.702;8.618;2023-08-06T10:47:40;2.57;;;1.13;;
3217;SDS011;1621;49.702;8.618;2023-08-06T10:50:06;2.93;;;1.30;;
3217;SDS011;1621;49.702;8.618;2023-08-06T10:52:33;2.50;;;0.80;;
3217;SDS011;1621;49.702;8.618;2023-08-06T10:54:59;2.30;;;0.70;;
3217;SDS011;1621;49.702;8.618;2023-08-06T10:57:26;2.70;;;0.93;;
3217;SDS011;1621;49.702;8.618;2023-08-06T10:59:52;2.73;;;1.00;;
3217;SDS011;1621;49.702;8.618;2023-08-06T11:02:19;2.67;;;1.23;;
3217;SDS011;1621;49.702;8.618;2023-08-06T11:04:46;2.30;;;0.80;;
3217;SDS011;1621;49.702;8.618;2023-08-06T11:07:13;2.60;;;0.93;;
3217;SDS011;1621;49.702;8.618;2023-08-06T11:09:39;3.77;;;0.90;;
3217;SDS011;1621;49.702;8.618;2023-08-06T11:12:07;2.20;;;0.60;;
3217;SDS011;1621;49.702;8.618;2023-08-06T11:14:35;2.20;;;0.60;;
3217;SDS011;1621;49.702;8.618;2023-08-06T11:17:01;2.40;;;0.70;;
3217;SDS011;1621;49.702;8.618;2023-08-06T11:19:29;3.10;;;0.70;;
3217;SDS011;1621;49.702;8.618;2023-08-06T11:21:55;2.30;;;0.60;;
3217;SDS011;1621;49.702;8.618;2023-08-06T11:24:23;3.67;;;0.67;;
3217;SDS011;1621;49.702;8.618;2023-08-06T11:26:49;2.30;;;0.60;;
3217;SDS011;1621;49.702;8.618;2023-08-06T11:29:16;2.17;;;0.60;;
3217;SDS011;1621;49.702;8.618;2023-08-06T11:31:42;2.10;;;0.60;;
3217;SDS011;1621;49.702;8.618;2023-08-06T11:34:08;2.40;;;0.70;;
3217;SDS011;1621;49.702;8.618;2023-08-06T11:36:37;2.30;;;0.60;;
3217;SDS011;1621;49.702;8.618;2023-08-06T11:39:06;5.10;;;0.80;;
3217;SDS011;1621;49.702;8.618;2023-08-06T11:41:33;2.87;;;0.90;;
3217;SDS011;1621;49.702;8.618;2023-08-06T11:43:59;3.27;;;0.90;;
3217;SDS011;1621;49.702;8.618;2023-08-06T11:46:26;2.40;;;0.80;;
3217;SDS011;1621;49.702;8.618;2023-08-06T11:48:52;2.40;;;0.80;;
3217;SDS011;1621;49.702;8.618;2023-08-06T11:51:22;2.30;;;0.70;;
3217;SDS011;1621;49.702;8.618;2023-08-06T11:53:49;3.43;;;0.90;;
3217;SDS011;1621;49.702;8.618;2023-08-06T11:56:16;2.30;;;0.80;;
3217;SDS011;1621;49.702;8.618;2023-08-06T11:58:42;3.63;;;1.00;;
3217;SDS011;1621;49.702;8.618;2023-08-06T12:01:08;2.50;;;0.93;;
3217;SDS011;1621;49.702;8.618;2023-08-06T12:03:38;3.23;;;0.77;;
3217;SDS011;1621;49.702;8.618;2023-08-06T12:06:05;2.60;;;0.90;;
3217;SDS011;1621;49.702;8.618;2023-08-06T12:08:32;2.40;;;0.80;;
3217;SDS011;1621;49.702;8.618;2023-08-06T12:10:59;4.70;;;1.40;;
3217;SDS011;1621;49.702;8.618;2023-08-06T12:13:26;3.10;;;0.93;;
3217;SDS011;1621;49.702;8.618;2023-08-06T12:15:53;2.57;;;0.80;;
3217;SDS011;1621;49.702;8.618;2023-08-06T12:18:22;3.13;;;0.90;;
3217;SDS011;1621;49.702;8.618;2023-08-06T12:20:48;2.70;;;0.83;;
3217;SDS011;1621;49.702;8.618;2023-08-06T12:23:14;2.57;;;0.70;;
3217;SDS011;1621;49.702;8.618;2023-08-06T12:25:41;3.90;;;1.10;;
3217;SDS011;1621;49.702;8.618;2023-08-06T12:28:11;2.90;;;1.00;;
3217;SDS011;1621;49.702;8.618;2023-08-06T12:30:38;2.80;;;0.90;;
3217;SDS011;1621;49.702;8.618;2023-08-06T12:33:06;2.77;;;0.87;;
3217;SDS011;1621;49.702;8.618;2023-08-06T12:35:33;3.50;;;1.23;;
3217;SDS011;1621;49.702;8.618;2023-08-06T12:37:59;2.97;;;0.93;;
3217;SDS011;1621;49.702;8.618;2023-08-06T12:40:25;2.40;;;0.80;;
3217;SDS011;1621;49.702;8.618;2023-08-06T12:42:51;4.93;;;1.23;;
3217;SDS011;1621;49.702;8.618;2023-08-06T12:45:20;2.50;;;0.97;;
3217;SDS011;1621;49.702;8.618;2023-08-06T12:47:46;3.20;;;0.90;;
3217;SDS011;1621;49.702;8.618;2023-08-06T12:50:13;2.80;;;1.00;;
3217;SDS011;1621;49.702;8.618;2023-08-06T12:52:39;4.47;;;2.30;;
3217;SDS011;1621;49.702;8.618;2023-08-06T12:55:06;3.90;;;1.30;;
3217;SDS011;1621;49.702;8.618;2023-08-06T12:57:32;3.53;;;1.30;;
3217;SDS011;1621;49.702;8.618;2023-08-06T12:59:59;4.07;;;1.33;;
3217;SDS011;1621;49.702;8.618;2023-08-06T13:02:27;2.83;;;1.07;;
3217;SDS011;1621;49.702;8.618;2023-08-06T13:04:54;2.50;;;0.90;;
3217;SDS011;1621;49.702;8.618;2023-08-06T13:07:21;3.17;;;1.10;;
3217;SDS011;1621;49.702;8.618;2023-08-06T13:09:47;5.00;;;1.00;;
3217;SDS011;1621;49.702;8.618;2023-08-06T13:12:13;2.70;;;1.00;;
3217;SDS011;1621;49.702;8.618;2023-08-06T13:14:40;2.80;;;0.90;;
3217;SDS011;1621;49.702;8.618;2023-08-06T13:17:06;2.53;;;0.93;;
3217;SDS011;1621;49.702;8.618;2023-08-06T13:19:35;2.50;;;0.80;;
3217;SDS011;1621;49.702;8.618;2023-08-06T13:22:02;3.50;;;1.20;;
3217;SDS011;1621;49.702;8.618;2023-08-06T13:24:30;3.07;;;0.80;;
3217;SDS011;1621;49.702;8.618;2023-08-06T13:26:56;3.17;;;1.10;;
3217;SDS011;1621;49.702;8.618;2023-08-06T13:29:22;4.33;;;0.80;;
3217;SDS011;1621;49.702;8.618;2023-08-06T13:31:49;2.43;;;0.70;;
3217;SDS011;1621;49.702;8.618;2023-08-06T13:34:15;2.73;;;0.97;;
3217;SDS011;1621;49.702;8.618;2023-08-06T13:36:43;3.63;;;1.07;;
3217;SDS011;1621;49.702;8.618;2023-08-06T13:39:10;4.00;;;1.47;;
3217;SDS011;1621;49.702;8.618;2023-08-06T13:41:37;2.47;;;0.90;;
3217;SDS011;1621;49.702;8.618;2023-08-06T13:44:03;3.23;;;1.00;;
3217;SDS011;1621;49.702;8.618;2023-08-06T13:46:30;2.93;;;1.10;;
3217;SDS011;1621;49.702;8.618;2023-08-06T13:48:56;3.90;;;1.17;;
3217;SDS011;1621;49.702;8.618;2023-08-06T13:51:22;4.20;;;1.37;;
3217;SDS011;1621;49.702;8.618;2023-08-06T13:53:50;2.30;;;0.80;;
3217;SDS011;1621;49.702;8.618;2023-08-06T13:56:17;3.27;;;0.90;;
3217;SDS011;1621;49.702;8.618;2023-08-06T13:58:43;2.50;;;0.77;;
3217;SDS011;1621;49.702;8.618;2023-08-06T14:01:10;3.03;;;1.00;;
3217;SDS011;1621;49.702;8.618;2023-08-06T14:03:38;4.20;;;1.20;;
3217;SDS011;1621;49.702;8.618;2023-08-06T14:06:04;2.37;;;0.87;;
3217;SDS011;1621;49.702;8.618;2023-08-06T14:08:30;2.60;;;0.90;;
3217;SDS011;1621;49.702;8.618;2023-08-06T14:10:58;3.60;;;1.20;;
3217;SDS011;1621;49.702;8.618;2023-08-06T14:13:25;3.37;;;1.20;;
3217;SDS011;1621;49.702;8.618;2023-08-06T14:16:01;5.10;;;1.20;;
3217;SDS011;1621;49.702;8.618;2023-08-06T14:18:31;2.60;;;0.83;;
3217;SDS011;1621;49.702;8.618;2023-08-06T14:21:02;2.53;;;0.70;;
3217;SDS011;1621;49.702;8.618;2023-08-06T14:23:29;2.87;;;0.83;;
3217;SDS011;1621;49.702;8.618;2023-08-06T14:25:57;2.60;;;0.90;;
3217;SDS011;1621;49.702;8.618;2023-08-06T14:28:23;3.87;;;0.90;;
3217;SDS011;1621;49.702;8.618;2023-08-06T14:30:49;2.77;;;0.90;;
3217;SDS011;1621;49.702;8.618;2023-08-06T14:33:16;2.93;;;0.93;;
3217;SDS011;1621;49.702;8.618;2023-08-06T14:35:42;3.10;;;0.80;;
3217;SDS011;1621;49.702;8.618;2023-08-06T14:38:09;3.70;;;0.90;;
3217;SDS011;1621;49.702;8.618;2023-08-06T14:40:35;2.57;;;0.93;;
3217;SDS011;1621;49.702;8.618;2023-08-06T14:43:04;2.50;;;0.90;;
3217;SDS011;1621;49.702;8.618;2023-08-06T14:45:31;2.30;;;0.73;;
3217;SDS011;1621;49.702;8.618;2023-08-06T14:47:57;2.40;;;0.80;;
3217;SDS011;1621;49.702;8.618;2023-08-06T14:50:23;3.23;;;1.30;;
3217;SDS011;1621;49.702;8.618;2023-08-06T14:52:49;2.50;;;1.00;;
3217;SDS011;1621;49.702;8.618;2023-08-06T14:55:17;2.77;;;0.97;;
3217;SDS011;1621;49.702;8.618;2023-08-06T14:57:43;2.60;;;0.83;;
3217;SDS011;1621;49.702;8.618;2023-08-06T15:00:12;2.83;;;1.07;;
3217;SDS011;1621;49.702;8.618;2023-08-06T15:02:38;2.30;;;0.87;;
3217;SDS011;1621;49.702;8.618;2023-08-06T15:05:05;2.70;;;0.90;;
3217;SDS011;1621;49.702;8.618;2023-08-06T15:07:31;2.77;;;0.90;;
3217;SDS011;1621;49.702;8.618;2023-08-06T15:10:00;2.50;;;0.90;;
3217;SDS011;1621;49.702;8.618;2023-08-06T15:12:26;4.20;;;1.00;;